Simon Bolivar, Colombia

10:40 AM COT en Octubre 31, 2014 (GMT -0500)
Simon Bolivar | Change Station
CLOSE
Current Station
Aeropuerto
Location: Santa Marta,
Altura: 13 ft
Estaciones meteorológicas cercanas

Alt 13 ft 11.12 °N, 74.23 °W | Updated 40 minutes ago

Mostly Cloudy
Muy nublado
86 ° F
Sensación térmica 97 ° F
N
5
Viento Variable Viento desde OSO

Hoy
Alta -- | Baja -- ° F
--% Posibilidad de precipitaciones
Ayer
Alta -- | Baja -- ° F
Precip. -- pul
5:48 AM 5:32 PM
Cuarto creciente, 56% visible
Presión 29.81 pul
Visibilidad 6.2 Millas
Nubes Baja 2000 ft
Muy nublado 20000 ft
Índice de calor 97 ° F
Punto de rocío 77 ° F
Humedad 74%
Precipitaciones 0.00 pul
Espesor de la nieve No disponible.
UV 7 de una escala de 12
Polen No disponible.
Calidad del aire No disponible.
Flu Activity No disponible.
METAR SKSM 311500Z 24004KT 9999 FEW020 BKN200 30/25 A2981

More Conditions Fewer Conditions

Presión 29.81 pul
Visibilidad 6.2 Millas
Nubes Baja 2000 ft
Muy nublado 20000 ft
Índice de calor 97 ° F
Punto de rocío 77 ° F
Humedad 74%
Precipitaciones 0.00 pul
Espesor de la nieve No disponible.
UV 7 de una escala de 12
Polen No disponible.
Calidad del aire No disponible.
Flu Activity No disponible.
METAR SKSM 311500Z 24004KT 9999 FEW020 BKN200 30/25 A2981

More Conditions Fewer Conditions

10-Day Weather Forecast

Almanac

Astronomía

Oct. 31, 2014 Salida Puesta
Hora real
Crepúsculo civil
Crepúsculo náutico
Crepúsculo astronómico
Luna
Horas de luz
Horas de luz
Tomorrow will be .
, % of the Moon is Illuminated

Extremos de hoy

Máximos del país Bajas del país

Community

WunderPhotos

Upload Photos

1,766,644 ¡fotos cargadas!

WunderBlogs® & News

Nearby

Calidad del aire

  Calidad del aire Índice AQ Contaminante
Not available.

Grosos de nieve

Estación Profundido Altura

Actividad de terremotos

Ciudad Distance Mag. Tiempo y dato
Magnitud mínima muestra es 2,5.

Temperaturas de aguas costeras

Lugar Temperatura

Estaciones meteorológicas cercanas